createdAt,value
2023-02-25T00:03:56.875Z,12.98
2023-02-25T00:09:01.981Z,17.40
2023-02-25T00:14:05.917Z,15.95
2023-02-25T00:19:10.555Z,24.80
2023-02-25T00:24:17.168Z,16.60
2023-02-25T00:29:22.162Z,17.62
2023-02-25T00:34:26.179Z,21.52
2023-02-25T00:39:42.941Z,16.10
2023-02-25T00:44:48.168Z,17.05
2023-02-25T00:49:52.402Z,18.77
2023-02-25T00:54:57.563Z,19.87
2023-02-25T01:00:01.383Z,12.82
2023-02-25T01:05:05.447Z,19.87
2023-02-25T01:10:12.269Z,9.70
2023-02-25T01:15:16.267Z,17.62
2023-02-25T01:20:22.460Z,23.65
2023-02-25T01:25:27.701Z,17.85
2023-02-25T01:30:31.400Z,17.00
2023-02-25T01:35:36.907Z,30.08
2023-02-25T01:40:42.069Z,19.75
2023-02-25T01:45:46.151Z,21.67
2023-02-25T01:50:52.963Z,23.45
2023-02-25T01:56:00.184Z,16.00
2023-02-25T02:01:04.166Z,17.17
2023-02-25T02:06:11.913Z,25.48
2023-02-25T02:11:18.331Z,19.70
2023-02-25T02:16:54.862Z,19.52
2023-02-25T02:22:08.384Z,18.75
2023-02-25T02:27:15.622Z,20.60
2023-02-25T02:32:32.356Z,23.23
2023-02-25T02:37:43.739Z,19.50
2023-02-25T02:42:58.481Z,21.02
2023-02-25T02:48:07.426Z,18.50
2023-02-25T02:53:17.546Z,24.77
2023-02-25T02:58:27.166Z,19.15
2023-02-25T03:03:37.933Z,21.65
2023-02-25T03:08:45.730Z,22.95
2023-02-25T03:19:01.004Z,16.42
2023-02-25T03:24:09.554Z,17.73
2023-02-25T03:29:17.747Z,16.75
2023-02-25T03:39:33.087Z,30.30
2023-02-25T03:44:42.400Z,11.43
2023-02-25T03:49:51.698Z,24.12
2023-02-25T03:54:57.570Z,20.05
2023-02-25T04:00:02.223Z,29.30
2023-02-25T04:05:08.812Z,22.55
2023-02-25T04:10:14.552Z,21.58
2023-02-25T04:15:19.022Z,23.05
2023-02-25T04:20:24.775Z,26.62
2023-02-25T04:25:29.007Z,16.05
2023-02-25T04:30:34.389Z,21.05
2023-02-25T04:35:40.454Z,25.88
2023-02-25T04:40:44.155Z,21.87
2023-02-25T04:45:48.172Z,14.57
2023-02-25T04:50:53.171Z,18.65
2023-02-25T04:55:56.854Z,19.27
2023-02-25T05:01:01.552Z,14.52
2023-02-25T05:06:08.911Z,11.80
2023-02-25T05:11:12.713Z,21.15
2023-02-25T05:16:18.585Z,15.82
2023-02-25T05:21:25.971Z,19.20
2023-02-25T05:26:29.754Z,15.50
2023-02-25T05:31:33.602Z,16.00
2023-02-25T05:36:38.713Z,21.05
2023-02-25T05:41:42.535Z,15.77
2023-02-25T05:46:46.292Z,23.10
2023-02-25T05:51:51.868Z,23.98
2023-02-25T05:56:55.542Z,31.08
2023-02-25T06:01:59.295Z,27.17
2023-02-25T06:07:04.689Z,20.65
2023-02-25T06:12:09.206Z,21.25
2023-02-25T06:17:12.891Z,30.10
2023-02-25T06:22:17.883Z,17.85
2023-02-25T06:27:22.209Z,24.23
2023-02-25T06:32:26.025Z,21.33
2023-02-25T06:37:31.128Z,25.67
2023-02-25T06:42:34.908Z,23.83
2023-02-25T06:47:38.620Z,20.17
2023-02-25T06:52:43.698Z,25.88
2023-02-25T06:57:47.415Z,26.23
2023-02-25T07:02:51.588Z,30.23
2023-02-25T07:07:56.713Z,29.02
2023-02-25T07:13:00.787Z,27.37
2023-02-25T07:18:05.120Z,25.25
2023-02-25T07:23:10.159Z,18.17
2023-02-25T07:28:13.905Z,26.83
2023-02-25T07:33:17.612Z,32.20
2023-02-25T07:38:22.761Z,21.77
2023-02-25T07:43:26.460Z,21.30
2023-02-25T07:48:30.434Z,33.45
2023-02-25T07:53:35.825Z,28.60
2023-02-25T07:58:40.331Z,14.93
2023-02-25T08:03:44.019Z,25.40
2023-02-25T08:08:50.831Z,27.02
2023-02-25T08:13:55.131Z,13.00
2023-02-25T08:18:59.336Z,25.25
2023-02-25T08:24:04.558Z,26.35
2023-02-25T08:29:08.611Z,16.58
2023-02-25T08:34:12.318Z,19.17
2023-02-25T08:39:18.386Z,18.83
2023-02-25T08:44:22.542Z,20.05
2023-02-25T08:49:26.385Z,24.02
2023-02-25T08:54:31.546Z,17.15
2023-02-25T08:59:36.805Z,22.13
2023-02-25T09:04:40.600Z,13.75
2023-02-25T09:09:45.685Z,24.67
2023-02-25T09:14:50.219Z,25.85
2023-02-25T09:19:53.972Z,36.10
2023-02-25T09:24:59.177Z,25.85
2023-02-25T09:30:02.990Z,26.98
2023-02-25T09:35:07.783Z,26.37
2023-02-25T09:40:18.037Z,28.45
2023-02-25T09:45:25.735Z,28.40
2023-02-25T09:50:34.028Z,18.98
2023-02-25T09:55:41.062Z,23.00
2023-02-25T10:00:49.155Z,25.42
2023-02-25T10:06:01.505Z,20.88
2023-02-25T10:11:12.683Z,13.52
2023-02-25T10:16:36.092Z,18.33
2023-02-25T10:21:55.097Z,19.25
2023-02-25T10:27:11.299Z,14.65
2023-02-25T10:32:20.824Z,20.58
2023-02-25T10:37:29.910Z,18.62
2023-02-25T10:42:35.112Z,16.10
2023-02-25T10:47:41.741Z,16.10
2023-02-25T10:52:56.997Z,15.32
2023-02-25T10:58:02.092Z,11.12
2023-02-25T11:03:06.142Z,9.60
2023-02-25T11:08:27.822Z,14.05
2023-02-25T11:13:36.891Z,10.77
2023-02-25T11:18:42.032Z,3.67
2023-02-25T11:23:48.853Z,4.90
2023-02-25T11:28:54.529Z,4.95
2023-02-25T11:34:01.173Z,4.30
2023-02-25T11:39:14.606Z,2.15
2023-02-25T11:44:24.114Z,0.85
2023-02-25T11:49:38.344Z,2.92
2023-02-25T11:54:53.027Z,3.50
2023-02-25T12:00:11.909Z,7.07
2023-02-25T12:05:28.051Z,5.57
2023-02-25T12:11:00.823Z,6.18
2023-02-25T12:16:41.093Z,3.72
2023-02-25T12:22:14.856Z,4.40
2023-02-25T12:27:58.925Z,6.28
2023-02-25T12:33:11.161Z,6.22
2023-02-25T12:38:50.184Z,3.40
2023-02-25T12:44:01.000Z,5.75
2023-02-25T12:49:31.662Z,10.25
2023-02-25T12:55:01.149Z,7.37
2023-02-25T13:00:45.937Z,5.70
2023-02-25T13:06:04.302Z,4.37
2023-02-25T13:11:19.027Z,7.37
2023-02-25T13:16:48.667Z,6.72
2023-02-25T13:22:04.526Z,6.32
2023-02-25T13:27:28.305Z,3.37
2023-02-25T13:32:39.715Z,8.25
2023-02-25T13:37:52.440Z,5.65
2023-02-25T13:43:09.114Z,8.05
2023-02-25T13:48:39.009Z,8.73
2023-02-25T13:53:59.009Z,8.52
2023-02-25T13:59:23.491Z,9.73
2023-02-25T14:05:00.397Z,10.20
2023-02-25T14:10:41.176Z,6.28
2023-02-25T14:15:59.927Z,7.28
2023-02-25T14:21:22.712Z,7.35
2023-02-25T14:26:35.472Z,6.80
2023-02-25T14:31:58.764Z,4.18
2023-02-25T14:37:27.510Z,5.30
2023-02-25T14:42:47.700Z,6.68
2023-02-25T14:48:01.148Z,4.78
2023-02-25T14:53:45.473Z,6.37
2023-02-25T14:59:11.405Z,6.68
2023-02-25T15:04:45.856Z,5.30
2023-02-25T15:10:27.956Z,4.70
2023-02-25T15:15:59.088Z,5.05
2023-02-25T15:21:38.192Z,8.60
2023-02-25T15:26:45.925Z,6.47
2023-02-25T15:32:16.521Z,6.85
2023-02-25T15:37:28.132Z,4.15
2023-02-25T15:42:43.158Z,8.13
2023-02-25T15:47:48.715Z,10.25
2023-02-25T15:52:57.764Z,3.28
2023-02-25T15:58:01.668Z,5.15
2023-02-25T16:03:27.236Z,7.37
2023-02-25T16:08:39.672Z,6.18
2023-02-25T16:13:44.063Z,6.75
2023-02-25T16:18:50.594Z,7.50
2023-02-25T16:23:56.270Z,8.77
2023-02-25T16:29:10.917Z,6.95
2023-02-25T16:34:22.789Z,11.93
2023-02-25T16:39:29.398Z,7.03
2023-02-25T16:44:38.948Z,4.47
2023-02-25T16:49:46.867Z,8.55
2023-02-25T16:54:57.613Z,7.82
2023-02-25T17:00:21.406Z,4.18
2023-02-25T17:05:29.100Z,4.68
2023-02-25T17:10:43.439Z,10.05
2023-02-25T17:15:47.207Z,10.27
2023-02-25T17:20:51.397Z,5.47
2023-02-25T17:25:59.121Z,9.43
2023-02-25T17:31:09.232Z,12.98
2023-02-25T17:36:15.069Z,9.15
2023-02-25T17:41:22.328Z,5.25
2023-02-25T17:46:36.082Z,11.32
2023-02-25T17:51:39.851Z,12.40
2023-02-25T17:56:45.745Z,7.70
2023-02-25T18:01:54.442Z,4.75
2023-02-25T18:06:58.306Z,13.48
2023-02-25T18:12:05.937Z,7.28
2023-02-25T18:17:26.362Z,8.10
2023-02-25T18:22:35.747Z,7.07
2023-02-25T18:27:40.848Z,6.72
2023-02-25T18:32:44.579Z,7.45
2023-02-25T18:37:50.677Z,6.37
2023-02-25T18:42:55.711Z,7.18
2023-02-25T18:48:00.282Z,8.88
2023-02-25T18:53:04.933Z,12.07
2023-02-25T18:58:15.108Z,9.75
2023-02-25T19:03:25.260Z,7.20
2023-02-25T19:08:29.013Z,8.10
2023-02-25T19:13:36.125Z,10.93
2023-02-25T19:18:41.437Z,8.60
2023-02-25T19:23:45.134Z,11.63
2023-02-25T19:28:50.278Z,9.35
2023-02-25T19:33:53.977Z,11.18
2023-02-25T19:38:57.664Z,9.07
2023-02-25T19:44:03.490Z,5.90
2023-02-25T19:49:07.214Z,12.95
2023-02-25T19:54:11.135Z,12.52
2023-02-25T19:59:16.679Z,7.10
2023-02-25T20:04:20.428Z,6.55
2023-02-25T20:09:24.359Z,11.38
2023-02-25T20:14:32.741Z,23.35
2023-02-25T20:19:36.508Z,19.55
2023-02-25T20:24:40.332Z,13.90
2023-02-25T20:29:45.532Z,15.60
2023-02-25T20:34:49.728Z,15.90
2023-02-25T20:39:55.162Z,18.05
2023-02-25T20:45:01.761Z,22.20
2023-02-25T20:50:08.226Z,15.73
2023-02-25T20:55:12.209Z,9.10
2023-02-25T21:00:20.500Z,11.07
2023-02-25T21:05:24.253Z,16.15
2023-02-25T21:10:28.021Z,14.23
2023-02-25T21:15:33.058Z,19.90
2023-02-25T21:20:36.837Z,19.58
2023-02-25T21:25:40.512Z,11.95
2023-02-25T21:30:45.664Z,13.73
2023-02-25T21:35:53.293Z,13.65
2023-02-25T21:40:57.289Z,31.33
2023-02-25T21:46:05.177Z,19.10
2023-02-25T21:51:15.042Z,16.87
2023-02-25T21:56:19.081Z,21.37
2023-02-25T22:01:26.195Z,21.95
2023-02-25T22:06:30.131Z,17.62
2023-02-25T22:11:36.222Z,16.17
2023-02-25T22:16:41.533Z,27.42
2023-02-25T22:21:46.345Z,15.05
2023-02-25T22:26:52.023Z,12.90
2023-02-25T22:31:57.165Z,20.42
2023-02-25T22:37:00.932Z,15.93
2023-02-25T22:42:04.870Z,24.87
2023-02-25T22:47:09.930Z,12.68
2023-02-25T22:52:13.668Z,12.52
2023-02-25T22:57:17.421Z,17.83
2023-02-25T23:02:22.481Z,16.05
2023-02-25T23:07:26.712Z,11.30
2023-02-25T23:12:31.401Z,11.68
2023-02-25T23:17:38.363Z,15.05
2023-02-25T23:22:42.046Z,12.40
2023-02-25T23:27:45.722Z,20.25
2023-02-25T23:32:50.879Z,14.73
2023-02-25T23:37:54.766Z,17.77
2023-02-25T23:42:58.433Z,18.15
2023-02-25T23:48:03.511Z,16.00
2023-02-25T23:53:07.267Z,12.07
2023-02-25T23:58:11.148Z,20.62
